Time;durP1;ratioP1;P1;durP2;ratioP2;P2;SDS_P1;SDS_P2;PMS_P1;PMS_P2;Temp;Humidity;BMP_temperature;BMP_pressure;BME280_temperature;BME280_humidity;BME280_pressure;Samples;Min_cycle;Max_cycle;Signal;HPM_P1;HPM_P2
2023/09/18 00:00:44;;;;;;;13.23;7.88;;;;;;;;;;2073877;28;20390;-62
2023/09/18 00:01:45;;;;;;;11.15;7.35;;;;;;;;;;2074299;28;20046;-63
2023/09/18 00:02:46;;;;;;;9.07;7.80;;;;;;;;;;2074218;28;20110;-64
2023/09/18 00:03:47;;;;;;;10.07;7.38;;;;;;;;;;2074155;28;20037;-63
2023/09/18 00:04:48;;;;;;;10.98;7.97;;;;;;;;;;2074171;28;20042;-62
2023/09/18 00:05:48;;;;;;;10.50;7.00;;;;;;;;;;2073608;28;20128;-63
2023/09/18 00:06:49;;;;;;;9.55;7.13;;;;;;;;;;2074336;28;20045;-63
2023/09/18 00:07:50;;;;;;;10.07;7.35;;;;;;;;;;2074047;28;20561;-63
2023/09/18 00:08:51;;;;;;;9.75;7.15;;;;;;;;;;2074383;28;20462;-63
2023/09/18 00:09:52;;;;;;;10.90;8.10;;;;;;;;;;2074121;28;20046;-63
2023/09/18 00:10:53;;;;;;;10.38;7.85;;;;;;;;;;2073700;28;20045;-63
2023/09/18 00:11:54;;;;;;;11.23;7.50;;;;;;;;;;2074207;28;20030;-62
2023/09/18 00:12:54;;;;;;;10.80;8.40;;;;;;;;;;2074138;28;20478;-62
2023/09/18 00:13:55;;;;;;;9.50;8.55;;;;;;;;;;2073753;28;20038;-62
2023/09/18 00:14:56;;;;;;;10.63;8.15;;;;;;;;;;2074414;28;20072;-63
2023/09/18 00:15:59;;;;;;;10.75;8.48;;;;;;;;;;2074247;28;20041;-63
2023/09/18 00:17:00;;;;;;;11.65;8.23;;;;;;;;;;2073720;28;20042;-62
2023/09/18 00:18:01;;;;;;;9.05;8.13;;;;;;;;;;2074436;28;20037;-63
2023/09/18 00:19:02;;;;;;;10.63;8.45;;;;;;;;;;2074047;28;20061;-63
2023/09/18 00:20:06;;;;;;;12.02;8.63;;;;;;;;;;2074001;28;20401;-63
2023/09/18 00:21:10;;;;;;;11.07;8.27;;;;;;;;;;2074176;28;20052;-63
2023/09/18 00:22:11;;;;;;;11.90;8.40;;;;;;;;;;2073871;28;20053;-62
2023/09/18 00:23:12;;;;;;;9.73;7.70;;;;;;;;;;2074020;28;20524;-63
2023/09/18 00:24:13;;;;;;;10.48;7.95;;;;;;;;;;2073993;28;20057;-63
2023/09/18 00:25:15;;;;;;;13.32;8.63;;;;;;;;;;2073656;28;20041;-62
2023/09/18 00:26:16;;;;;;;10.68;8.77;;;;;;;;;;2073730;28;20057;-63
2023/09/18 00:27:20;;;;;;;11.77;8.98;;;;;;;;;;2073232;28;20505;-63
2023/09/18 00:28:20;;;;;;;10.85;8.75;;;;;;;;;;2073433;28;20044;-63
2023/09/18 00:29:21;;;;;;;10.00;8.52;;;;;;;;;;2073393;28;20046;-62
2023/09/18 00:30:22;;;;;;;10.75;8.13;;;;;;;;;;2073978;28;20052;-64
2023/09/18 00:31:23;;;;;;;10.02;8.40;;;;;;;;;;2074165;28;20050;-62
2023/09/18 00:32:23;;;;;;;12.15;8.93;;;;;;;;;;2073059;28;20518;-63
2023/09/18 00:33:24;;;;;;;9.88;8.40;;;;;;;;;;2073380;28;20029;-63
2023/09/18 00:34:25;;;;;;;15.35;9.00;;;;;;;;;;2073355;28;20038;-62
2023/09/18 00:35:25;;;;;;;9.82;8.82;;;;;;;;;;2073046;28;20056;-63
2023/09/18 00:36:26;;;;;;;9.75;8.75;;;;;;;;;;2073012;28;20045;-63
2023/09/18 00:37:28;;;;;;;12.23;9.25;;;;;;;;;;2073104;28;20076;-63
2023/09/18 00:38:29;;;;;;;12.98;9.32;;;;;;;;;;2073921;28;20050;-63
2023/09/18 00:39:30;;;;;;;13.38;8.35;;;;;;;;;;2074163;28;20038;-63
2023/09/18 00:40:31;;;;;;;11.25;9.27;;;;;;;;;;2073557;28;20046;-62
2023/09/18 00:41:32;;;;;;;11.10;9.02;;;;;;;;;;2073945;28;20061;-63
2023/09/18 00:42:32;;;;;;;12.25;9.05;;;;;;;;;;2073257;28;20054;-62
2023/09/18 00:43:34;;;;;;;11.93;9.35;;;;;;;;;;2073051;28;20049;-63
2023/09/18 00:44:35;;;;;;;11.18;8.82;;;;;;;;;;2073950;28;20047;-62
2023/09/18 00:45:38;;;;;;;10.73;9.63;;;;;;;;;;2073894;28;20041;-62
2023/09/18 00:46:38;;;;;;;11.63;9.18;;;;;;;;;;2074194;28;20064;-63
2023/09/18 00:47:39;;;;;;;12.93;9.95;;;;;;;;;;2073444;28;20136;-63
2023/09/18 00:48:40;;;;;;;12.55;9.75;;;;;;;;;;2073963;28;20062;-63
2023/09/18 00:49:41;;;;;;;10.98;9.23;;;;;;;;;;2073896;28;20045;-63
2023/09/18 00:50:43;;;;;;;13.18;10.05;;;;;;;;;;2073271;28;20042;-63
2023/09/18 00:51:44;;;;;;;13.10;10.85;;;;;;;;;;2072702;28;20030;-62
2023/09/18 00:52:44;;;;;;;12.00;10.43;;;;;;;;;;2073237;28;20042;-63
2023/09/18 00:53:45;;;;;;;11.27;10.07;;;;;;;;;;2064570;28;20046;-63
2023/09/18 00:54:46;;;;;;;12.55;10.32;;;;;;;;;;2072671;28;20050;-63
2023/09/18 00:55:48;;;;;;;13.48;9.68;;;;;;;;;;2057436;28;20043;-63
2023/09/18 00:56:53;;;;;;;10.95;9.70;;;;;;;;;;2049124;29;20403;-63
2023/09/18 00:57:57;;;;;;;12.20;10.00;;;;;;;;;;2065977;28;20038;-63
2023/09/18 00:58:58;;;;;;;12.93;10.93;;;;;;;;;;2073031;28;20045;-63
2023/09/18 00:59:58;;;;;;;12.20;10.65;;;;;;;;;;2064932;28;20042;-63
2023/09/18 01:00:59;;;;;;;16.23;10.48;;;;;;;;;;2072881;28;20069;-62
2023/09/18 01:02:00;;;;;;;16.27;11.25;;;;;;;;;;2065148;28;20445;-62
2023/09/18 01:03:01;;;;;;;13.63;10.68;;;;;;;;;;2056289;28;20046;-62
2023/09/18 01:04:02;;;;;;;13.27;10.48;;;;;;;;;;2064869;28;20038;-62
2023/09/18 01:05:03;;;;;;;15.32;11.15;;;;;;;;;;2081316;28;20509;-63
2023/09/18 01:06:04;;;;;;;13.95;10.32;;;;;;;;;;2073814;28;20038;-63
2023/09/18 01:07:04;;;;;;;13.20;11.05;;;;;;;;;;2073824;28;20419;-62
2023/09/18 01:08:05;;;;;;;12.88;11.32;;;;;;;;;;2073814;28;20074;-62
2023/09/18 01:09:12;;;;;;;15.77;11.45;;;;;;;;;;2073759;28;20042;-63
2023/09/18 01:10:16;;;;;;;14.15;10.95;;;;;;;;;;2072956;28;20053;-62
2023/09/18 01:11:37;;;;;;;15.30;11.45;;;;;;;;;;2072952;28;20085;-62
2023/09/18 01:12:44;;;;;;;14.68;10.70;;;;;;;;;;2066215;28;20532;-62
2023/09/18 01:13:46;;;;;;;16.95;11.30;;;;;;;;;;2074130;28;20038;-62
2023/09/18 01:14:56;;;;;;;15.02;10.65;;;;;;;;;;2072956;28;20045;-62
2023/09/18 01:15:58;;;;;;;15.35;10.20;;;;;;;;;;2073278;28;20045;-63
2023/09/18 01:17:01;;;;;;;15.25;11.48;;;;;;;;;;2073501;28;20034;-63
2023/09/18 01:18:03;;;;;;;18.15;12.27;;;;;;;;;;2073845;28;20057;-62
2023/09/18 01:19:03;;;;;;;13.30;11.10;;;;;;;;;;2073156;28;20041;-62
2023/09/18 01:20:05;;;;;;;14.20;11.35;;;;;;;;;;2073070;28;20132;-63
2023/09/18 01:21:06;;;;;;;16.08;13.35;;;;;;;;;;2073821;28;20389;-62
2023/09/18 01:22:07;;;;;;;16.75;12.05;;;;;;;;;;2073620;28;20041;-62
2023/09/18 01:23:08;;;;;;;15.18;12.25;;;;;;;;;;2073739;28;20449;-62
2023/09/18 01:24:09;;;;;;;14.10;12.60;;;;;;;;;;2073665;28;20050;-62
2023/09/18 01:25:10;;;;;;;15.55;11.88;;;;;;;;;;2073768;28;20038;-61
2023/09/18 01:26:10;;;;;;;16.45;13.18;;;;;;;;;;2073727;28;20045;-62
2023/09/18 01:27:13;;;;;;;13.55;11.85;;;;;;;;;;2073739;28;20049;-62
2023/09/18 01:28:13;;;;;;;14.80;12.60;;;;;;;;;;2073771;28;20075;-62
2023/09/18 01:29:14;;;;;;;15.90;11.65;;;;;;;;;;2073286;28;20054;-62
2023/09/18 01:30:15;;;;;;;16.50;11.80;;;;;;;;;;2072703;28;20042;-62
2023/09/18 01:31:18;;;;;;;14.65;11.90;;;;;;;;;;2073150;28;20045;-62
2023/09/18 01:32:19;;;;;;;16.70;13.38;;;;;;;;;;2072689;28;20474;-63
2023/09/18 01:33:20;;;;;;;13.32;10.95;;;;;;;;;;2072291;28;20046;-62
2023/09/18 01:34:21;;;;;;;17.23;14.05;;;;;;;;;;2072509;28;20060;-62
2023/09/18 01:35:28;;;;;;;14.07;12.52;;;;;;;;;;2073134;28;20037;-62
2023/09/18 01:36:29;;;;;;;15.65;12.32;;;;;;;;;;2065794;28;20047;-62
2023/09/18 01:37:30;;;;;;;16.83;12.45;;;;;;;;;;2072807;28;20065;-62
2023/09/18 01:38:30;;;;;;;13.63;11.68;;;;;;;;;;2073623;28;20053;-63
2023/09/18 01:39:31;;;;;;;14.88;11.60;;;;;;;;;;2073668;28;20061;-63
2023/09/18 01:40:32;;;;;;;14.98;12.10;;;;;;;;;;2072439;28;20046;-62
2023/09/18 01:41:33;;;;;;;15.98;12.35;;;;;;;;;;2064618;28;20050;-62
2023/09/18 01:42:34;;;;;;;14.60;11.73;;;;;;;;;;2072639;28;20394;-63
2023/09/18 01:43:35;;;;;;;15.90;12.48;;;;;;;;;;2073645;28;20046;-63
2023/09/18 01:44:38;;;;;;;16.35;12.77;;;;;;;;;;2072770;28;20045;-63
2023/09/18 01:45:38;;;;;;;19.13;12.52;;;;;;;;;;2072600;28;20133;-62
2023/09/18 01:46:39;;;;;;;16.67;11.88;;;;;;;;;;2072699;28;20054;-62
2023/09/18 01:47:41;;;;;;;13.93;12.15;;;;;;;;;;2072791;28;20049;-63
2023/09/18 01:48:45;;;;;;;16.05;12.85;;;;;;;;;;2073170;28;20412;-63
2023/09/18 01:49:46;;;;;;;15.20;12.20;;;;;;;;;;2073566;28;20367;-63
2023/09/18 01:50:47;;;;;;;15.85;12.27;;;;;;;;;;2072993;28;20066;-62
2023/09/18 01:51:48;;;;;;;14.73;12.30;;;;;;;;;;2072779;28;20053;-62
2023/09/18 01:52:48;;;;;;;13.27;11.88;;;;;;;;;;2073620;28;20458;-62
2023/09/18 01:53:49;;;;;;;21.85;13.30;;;;;;;;;;2073623;28;20042;-62
2023/09/18 01:54:50;;;;;;;16.00;13.48;;;;;;;;;;2073623;28;20065;-62
2023/09/18 01:55:51;;;;;;;16.55;13.93;;;;;;;;;;2073569;28;20029;-62
2023/09/18 01:56:52;;;;;;;15.25;13.07;;;;;;;;;;2072806;28;20050;-62
2023/09/18 01:57:52;;;;;;;17.95;12.73;;;;;;;;;;2064932;28;20418;-63
2023/09/18 01:58:53;;;;;;;13.25;11.15;;;;;;;;;;2072952;28;20076;-62
2023/09/18 01:59:54;;;;;;;15.68;12.23;;;;;;;;;;2064969;28;20053;-62
2023/09/18 02:00:55;;;;;;;15.13;12.25;;;;;;;;;;2073191;28;20030;-62
2023/09/18 02:01:55;;;;;;;13.77;11.02;;;;;;;;;;2073605;28;20065;-62
2023/09/18 02:02:56;;;;;;;13.00;10.20;;;;;;;;;;2073568;28;20025;-62
2023/09/18 02:03:57;;;;;;;14.60;11.40;;;;;;;;;;2074509;28;20034;-62
2023/09/18 02:04:57;;;;;;;15.82;12.05;;;;;;;;;;2074123;28;20080;-62
2023/09/18 02:05:59;;;;;;;13.55;11.00;;;;;;;;;;2074269;28;20042;-62
2023/09/18 02:07:00;;;;;;;15.40;12.18;;;;;;;;;;2074492;28;20053;-62
2023/09/18 02:08:01;;;;;;;13.90;11.55;;;;;;;;;;2074466;28;20556;-63
2023/09/18 02:09:03;;;;;;;14.25;11.60;;;;;;;;;;2074989;28;20041;-62
2023/09/18 02:10:04;;;;;;;15.02;11.63;;;;;;;;;;2075230;28;20056;-62
2023/09/18 02:11:05;;;;;;;13.18;11.88;;;;;;;;;;2074475;28;20045;-62
2023/09/18 02:12:06;;;;;;;15.05;12.05;;;;;;;;;;2065728;28;20085;-62
2023/09/18 02:13:06;;;;;;;14.10;11.70;;;;;;;;;;2066214;28;20522;-62
2023/09/18 02:14:07;;;;;;;13.88;11.25;;;;;;;;;;2066153;28;20396;-62
2023/09/18 02:15:10;;;;;;;12.38;10.75;;;;;;;;;;2065735;28;20042;-62
2023/09/18 02:16:11;;;;;;;14.00;10.93;;;;;;;;;;2066535;28;20383;-62
2023/09/18 02:17:12;;;;;;;13.27;11.48;;;;;;;;;;2073604;28;20049;-62
2023/09/18 02:18:13;;;;;;;13.63;12.18;;;;;;;;;;2075048;28;20041;-63
2023/09/18 02:19:14;;;;;;;15.35;11.98;;;;;;;;;;2075238;28;20050;-63
2023/09/18 02:20:14;;;;;;;14.73;11.75;;;;;;;;;;2074485;28;20053;-63
2023/09/18 02:21:21;;;;;;;13.43;11.98;;;;;;;;;;2073845;28;20124;-63
2023/09/18 02:22:22;;;;;;;13.45;11.20;;;;;;;;;;2074295;28;20178;-62
2023/09/18 02:23:23;;;;;;;13.00;11.55;;;;;;;;;;2074076;28;20124;-63
2023/09/18 02:24:24;;;;;;;14.55;11.38;;;;;;;;;;2074931;28;20049;-62
2023/09/18 02:25:25;;;;;;;13.95;11.48;;;;;;;;;;2074671;28;20099;-62
2023/09/18 02:26:25;;;;;;;15.50;13.00;;;;;;;;;;2074497;28;20038;-62
2023/09/18 02:27:26;;;;;;;15.57;13.27;;;;;;;;;;2066324;28;20041;-62
2023/09/18 02:28:27;;;;;;;16.40;13.23;;;;;;;;;;2074349;28;20053;-63
2023/09/18 02:29:28;;;;;;;15.00;11.98;;;;;;;;;;2075078;28;20517;-63
2023/09/18 02:30:29;;;;;;;14.10;12.60;;;;;;;;;;2075053;28;20060;-63
2023/09/18 02:31:30;;;;;;;14.95;12.48;;;;;;;;;;2075007;28;20037;-62
2023/09/18 02:32:32;;;;;;;15.05;12.57;;;;;;;;;;2075114;28;20045;-63
2023/09/18 02:33:33;;;;;;;16.55;12.88;;;;;;;;;;2074111;28;20204;-62
2023/09/18 02:34:34;;;;;;;15.95;12.73;;;;;;;;;;2065974;28;20526;-62
2023/09/18 02:35:34;;;;;;;17.00;12.13;;;;;;;;;;2074354;28;20042;-63
2023/09/18 02:36:35;;;;;;;14.00;11.88;;;;;;;;;;2074122;28;20045;-64
2023/09/18 02:37:36;;;;;;;18.02;13.48;;;;;;;;;;2074300;28;20042;-63
2023/09/18 02:38:37;;;;;;;20.58;14.07;;;;;;;;;;2075062;28;20462;-63
2023/09/18 02:39:37;;;;;;;14.80;12.60;;;;;;;;;;2074301;28;20044;-63
2023/09/18 02:40:38;;;;;;;13.38;11.82;;;;;;;;;;2065944;28;20042;-63
2023/09/18 02:41:39;;;;;;;16.42;13.23;;;;;;;;;;2065643;28;20046;-63
2023/09/18 02:42:40;;;;;;;14.90;12.18;;;;;;;;;;2074234;28;20500;-63
2023/09/18 02:43:40;;;;;;;17.52;12.77;;;;;;;;;;2074783;28;20030;-63
2023/09/18 02:44:41;;;;;;;18.58;12.52;;;;;;;;;;2074587;28;20045;-63
2023/09/18 02:45:42;;;;;;;12.95;11.55;;;;;;;;;;2074331;28;20041;-63
2023/09/18 02:46:43;;;;;;;13.55;11.77;;;;;;;;;;2073512;28;20046;-63
2023/09/18 02:47:45;;;;;;;16.55;12.38;;;;;;;;;;2073934;28;20049;-64
2023/09/18 02:48:46;;;;;;;20.10;13.02;;;;;;;;;;2074154;28;20029;-64
2023/09/18 02:49:47;;;;;;;16.67;12.90;;;;;;;;;;2074669;28;20402;-63
2023/09/18 02:50:48;;;;;;;15.85;13.38;;;;;;;;;;2074429;28;20038;-63
2023/09/18 02:51:49;;;;;;;15.68;12.65;;;;;;;;;;2066108;28;20120;-63
2023/09/18 02:52:50;;;;;;;16.27;13.18;;;;;;;;;;2065347;28;20042;-63
2023/09/18 02:53:51;;;;;;;14.40;12.25;;;;;;;;;;2066368;28;20043;-63
2023/09/18 02:54:52;;;;;;;15.60;11.95;;;;;;;;;;2074085;28;20394;-64
2023/09/18 02:55:53;;;;;;;13.52;11.77;;;;;;;;;;2074708;28;20042;-63
2023/09/18 02:56:54;;;;;;;15.82;12.27;;;;;;;;;;2073789;28;20037;-63
2023/09/18 02:57:55;;;;;;;15.20;12.60;;;;;;;;;;2065665;28;20390;-63
2023/09/18 02:58:56;;;;;;;15.05;11.20;;;;;;;;;;2073489;28;20126;-63
2023/09/18 02:59:57;;;;;;;14.50;12.30;;;;;;;;;;2073778;28;20044;-63
2023/09/18 03:00:59;;;;;;;15.88;11.90;;;;;;;;;;2066093;28;20038;-62
2023/09/18 03:02:00;;;;;;;15.07;11.68;;;;;;;;;;2066134;28;20034;-63
2023/09/18 03:03:01;;;;;;;16.23;12.02;;;;;;;;;;2065998;28;20117;-63
2023/09/18 03:04:01;;;;;;;14.63;11.88;;;;;;;;;;2073450;28;20073;-63
2023/09/18 03:05:02;;;;;;;15.32;12.75;;;;;;;;;;2074045;28;20048;-63
2023/09/18 03:06:04;;;;;;;15.38;11.98;;;;;;;;;;2065962;28;20039;-63
2023/09/18 03:07:05;;;;;;;15.10;9.50;;;;;;;;;;2066023;28;20042;-63
2023/09/18 03:08:06;;;;;;;14.25;10.15;;;;;;;;;;2073806;28;20056;-63
2023/09/18 03:09:07;;;;;;;15.38;12.02;;;;;;;;;;2073576;28;20077;-64
2023/09/18 03:10:09;;;;;;;16.75;12.43;;;;;;;;;;2065128;28;20426;-63
2023/09/18 03:11:12;;;;;;;14.18;11.35;;;;;;;;;;2066138;28;20049;-63
2023/09/18 03:12:13;;;;;;;16.58;12.35;;;;;;;;;;2066293;28;20076;-62
2023/09/18 03:13:14;;;;;;;16.38;11.82;;;;;;;;;;2073930;28;20045;-62
2023/09/18 03:14:15;;;;;;;15.55;11.65;;;;;;;;;;2065620;28;20050;-63
2023/09/18 03:15:16;;;;;;;13.18;10.18;;;;;;;;;;2073454;28;20033;-62
2023/09/18 03:16:16;;;;;;;14.57;12.07;;;;;;;;;;2073907;28;20084;-63
2023/09/18 03:17:20;;;;;;;15.52;12.32;;;;;;;;;;2065739;28;20407;-63
2023/09/18 03:18:20;;;;;;;17.67;12.57;;;;;;;;;;2065669;28;20053;-64
2023/09/18 03:19:22;;;;;;;14.75;12.43;;;;;;;;;;2073910;28;20096;-63
2023/09/18 03:20:24;;;;;;;15.68;12.52;;;;;;;;;;2074143;28;20030;-63
2023/09/18 03:21:24;;;;;;;12.85;11.43;;;;;;;;;;2081587;28;20053;-63
2023/09/18 03:22:25;;;;;;;16.92;11.50;;;;;;;;;;2074169;28;20054;-63
2023/09/18 03:23:27;;;;;;;14.45;12.00;;;;;;;;;;2073527;28;20042;-63
2023/09/18 03:24:27;;;;;;;14.50;12.10;;;;;;;;;;2065273;28;20133;-62
2023/09/18 03:25:28;;;;;;;13.55;11.80;;;;;;;;;;2073575;28;20045;-63
2023/09/18 03:26:29;;;;;;;15.98;12.25;;;;;;;;;;2073886;28;20069;-63
2023/09/18 03:27:31;;;;;;;13.27;11.18;;;;;;;;;;2073897;28;20042;-62
2023/09/18 03:28:32;;;;;;;15.27;12.07;;;;;;;;;;2073813;28;20421;-62
2023/09/18 03:29:33;;;;;;;15.30;12.13;;;;;;;;;;2065052;28;20050;-62
2023/09/18 03:30:33;;;;;;;15.38;12.52;;;;;;;;;;2065166;28;20046;-62
2023/09/18 03:31:34;;;;;;;18.13;12.90;;;;;;;;;;2065578;28;20050;-63
2023/09/18 03:32:35;;;;;;;15.90;12.55;;;;;;;;;;2073750;28;20168;-63
2023/09/18 03:33:36;;;;;;;14.82;12.15;;;;;;;;;;2073465;28;20054;-64
2023/09/18 03:34:38;;;;;;;15.73;12.23;;;;;;;;;;2065677;28;20045;-64
2023/09/18 03:35:48;;;;;;;16.95;12.65;;;;;;;;;;2073791;28;20501;-63
2023/09/18 03:36:49;;;;;;;15.05;12.07;;;;;;;;;;2073162;28;20512;-63
2023/09/18 03:37:51;;;;;;;14.90;11.52;;;;;;;;;;2065217;28;20045;-63
2023/09/18 03:38:51;;;;;;;14.90;11.27;;;;;;;;;;2073544;28;20034;-63
2023/09/18 03:39:52;;;;;;;15.88;11.85;;;;;;;;;;2073388;28;20042;-63
2023/09/18 03:40:53;;;;;;;17.25;12.20;;;;;;;;;;2073840;28;20116;-62
2023/09/18 03:41:55;;;;;;;14.80;11.70;;;;;;;;;;2073086;28;20041;-63
2023/09/18 03:42:55;;;;;;;14.80;12.32;;;;;;;;;;2073706;28;20069;-63
2023/09/18 03:43:56;;;;;;;15.77;12.80;;;;;;;;;;2073825;28;20065;-63
2023/09/18 03:44:57;;;;;;;15.95;12.88;;;;;;;;;;2073152;28;20048;-63
2023/09/18 03:46:07;;;;;;;16.20;12.57;;;;;;;;;;2073654;28;20038;-63
2023/09/18 03:47:14;;;;;;;13.75;10.80;;;;;;;;;;2072977;28;20517;-63
2023/09/18 03:48:15;;;;;;;15.40;12.30;;;;;;;;;;2065924;28;20045;-64
2023/09/18 03:49:16;;;;;;;14.05;12.43;;;;;;;;;;2057184;28;20054;-63
2023/09/18 03:50:16;;;;;;;14.63;12.05;;;;;;;;;;2057163;28;20086;-63
2023/09/18 03:51:18;;;;;;;14.15;12.43;;;;;;;;;;2073310;28;20544;-63
2023/09/18 03:52:19;;;;;;;14.50;12.48;;;;;;;;;;2073649;28;20046;-63
2023/09/18 03:53:21;;;;;;;15.75;12.80;;;;;;;;;;2065374;28;20376;-63
2023/09/18 03:54:21;;;;;;;14.90;12.00;;;;;;;;;;2065538;28;20424;-63
2023/09/18 03:55:22;;;;;;;17.00;13.25;;;;;;;;;;2073449;28;20045;-64
2023/09/18 03:56:23;;;;;;;20.00;14.95;;;;;;;;;;2073278;28;20044;-63
2023/09/18 03:57:24;;;;;;;15.57;12.52;;;;;;;;;;2065582;28;20060;-64
2023/09/18 03:58:24;;;;;;;16.30;12.70;;;;;;;;;;2073258;28;20046;-63
2023/09/18 03:59:25;;;;;;;19.15;14.18;;;;;;;;;;2074279;28;20397;-64
2023/09/18 04:00:26;;;;;;;19.05;14.40;;;;;;;;;;2073608;28;20374;-63
2023/09/18 04:01:28;;;;;;;18.83;14.10;;;;;;;;;;2065041;28;20061;-63
2023/09/18 04:02:30;;;;;;;16.55;13.05;;;;;;;;;;2073686;28;20065;-64
2023/09/18 04:03:30;;;;;;;17.58;14.23;;;;;;;;;;2072730;28;20494;-64
2023/09/18 04:04:33;;;;;;;16.05;13.55;;;;;;;;;;2073250;28;20042;-63
2023/09/18 04:05:34;;;;;;;16.75;13.45;;;;;;;;;;2065677;28;20046;-63
2023/09/18 04:06:40;;;;;;;16.45;13.50;;;;;;;;;;2065530;28;20038;-63
2023/09/18 04:07:45;;;;;;;14.60;12.63;;;;;;;;;;2065801;28;20051;-62
2023/09/18 04:08:46;;;;;;;14.80;12.10;;;;;;;;;;2073084;28;20045;-63
2023/09/18 04:09:47;;;;;;;15.95;13.50;;;;;;;;;;2074078;28;20057;-63
2023/09/18 04:10:48;;;;;;;17.83;14.13;;;;;;;;;;2074143;28;20045;-63
2023/09/18 04:11:49;;;;;;;19.38;14.15;;;;;;;;;;2074289;28;20042;-63
2023/09/18 04:12:50;;;;;;;15.60;13.73;;;;;;;;;;2074199;28;20129;-63
2023/09/18 04:13:51;;;;;;;18.50;14.50;;;;;;;;;;2074100;28;20046;-62
2023/09/18 04:14:52;;;;;;;18.67;14.38;;;;;;;;;;2073241;28;20510;-63
2023/09/18 04:15:56;;;;;;;16.90;13.88;;;;;;;;;;2073541;28;20063;-62
2023/09/18 04:16:58;;;;;;;15.68;13.73;;;;;;;;;;2073777;28;20037;-62
2023/09/18 04:17:59;;;;;;;17.30;13.20;;;;;;;;;;2073139;28;20046;-63
2023/09/18 04:18:59;;;;;;;18.55;15.35;;;;;;;;;;2065391;28;20505;-63
2023/09/18 04:20:00;;;;;;;17.75;14.38;;;;;;;;;;2065317;28;20038;-62
2023/09/18 04:21:01;;;;;;;18.40;14.90;;;;;;;;;;2065100;28;20098;-62
2023/09/18 04:22:01;;;;;;;17.88;14.10;;;;;;;;;;2073301;28;20088;-62
2023/09/18 04:23:21;;;;;;;16.50;14.30;;;;;;;;;;2073394;28;20038;-62
2023/09/18 04:24:23;;;;;;;18.02;14.50;;;;;;;;;;2067861;28;20422;-62
2023/09/18 04:25:26;;;;;;;17.27;14.73;;;;;;;;;;2065247;28;20053;-62
2023/09/18 04:26:30;;;;;;;21.27;15.05;;;;;;;;;;2073030;28;20038;-63
2023/09/18 04:27:32;;;;;;;18.42;14.93;;;;;;;;;;2073135;28;20038;-62
2023/09/18 04:28:32;;;;;;;19.50;15.85;;;;;;;;;;2073025;28;20046;-63
2023/09/18 04:29:33;;;;;;;19.65;15.68;;;;;;;;;;2073085;28;20041;-63
2023/09/18 04:30:34;;;;;;;21.75;16.17;;;;;;;;;;2065071;28;20077;-62
2023/09/18 04:31:35;;;;;;;22.10;16.20;;;;;;;;;;2065018;28;20254;-62
2023/09/18 04:32:36;;;;;;;20.20;15.93;;;;;;;;;;2065134;28;20533;-63
2023/09/18 04:33:37;;;;;;;21.60;16.58;;;;;;;;;;2072762;28;20046;-63
2023/09/18 04:34:39;;;;;;;21.58;15.93;;;;;;;;;;2073086;28;20041;-62
2023/09/18 04:35:40;;;;;;;23.40;16.90;;;;;;;;;;2073038;28;20393;-63
2023/09/18 04:36:41;;;;;;;21.23;15.68;;;;;;;;;;2073379;28;20041;-62
2023/09/18 04:37:42;;;;;;;23.70;16.52;;;;;;;;;;2072769;28;20045;-63
2023/09/18 04:38:43;;;;;;;21.52;15.65;;;;;;;;;;2064506;28;20049;-62
2023/09/18 04:39:45;;;;;;;20.27;16.60;;;;;;;;;;2065254;28;20367;-63
2023/09/18 04:40:46;;;;;;;20.15;15.35;;;;;;;;;;2073068;28;20052;-63
2023/09/18 04:41:47;;;;;;;22.13;15.30;;;;;;;;;;2073474;28;20038;-63
2023/09/18 04:42:48;;;;;;;20.67;15.85;;;;;;;;;;2065255;28;20038;-63
2023/09/18 04:43:50;;;;;;;21.92;15.73;;;;;;;;;;2073022;28;20438;-62
2023/09/18 04:44:51;;;;;;;21.00;15.65;;;;;;;;;;2073024;28;20057;-61
2023/09/18 04:45:52;;;;;;;22.13;15.15;;;;;;;;;;2064861;28;20161;-62
2023/09/18 04:46:53;;;;;;;19.40;15.45;;;;;;;;;;2064582;28;20082;-62
2023/09/18 04:47:54;;;;;;;19.85;15.07;;;;;;;;;;2064766;28;20045;-62
2023/09/18 04:48:54;;;;;;;20.77;15.73;;;;;;;;;;2073165;28;20041;-62
2023/09/18 04:49:55;;;;;;;19.20;15.02;;;;;;;;;;2073772;28;20038;-63
2023/09/18 04:50:56;;;;;;;19.98;14.68;;;;;;;;;;2073128;28;20441;-63
2023/09/18 04:51:57;;;;;;;20.95;15.45;;;;;;;;;;2065306;28;20462;-63
2023/09/18 04:52:58;;;;;;;19.42;14.90;;;;;;;;;;2073251;28;20057;-63
2023/09/18 04:54:00;;;;;;;21.40;14.93;;;;;;;;;;2065369;28;20045;-63
2023/09/18 04:55:00;;;;;;;17.98;14.48;;;;;;;;;;2065116;28;20042;-63
2023/09/18 04:56:03;;;;;;;20.23;15.48;;;;;;;;;;2073046;28;20045;-63
2023/09/18 04:57:05;;;;;;;19.65;14.23;;;;;;;;;;2073398;28;20046;-63
2023/09/18 04:58:06;;;;;;;20.45;15.20;;;;;;;;;;2073210;28;20421;-63
2023/09/18 04:59:07;;;;;;;20.38;16.40;;;;;;;;;;2064844;28;20050;-62
2023/09/18 05:00:08;;;;;;;18.50;14.50;;;;;;;;;;2064861;28;20046;-63
2023/09/18 05:01:11;;;;;;;21.83;15.15;;;;;;;;;;2065166;28;20045;-63
2023/09/18 05:02:13;;;;;;;19.58;14.65;;;;;;;;;;2065415;28;20396;-63
2023/09/18 05:03:14;;;;;;;19.20;15.70;;;;;;;;;;2064952;28;20065;-63
2023/09/18 05:04:16;;;;;;;19.98;14.60;;;;;;;;;;2064587;28;20042;-63
2023/09/18 05:05:17;;;;;;;20.08;13.90;;;;;;;;;;2073204;28;20050;-63
2023/09/18 05:06:18;;;;;;;20.85;14.52;;;;;;;;;;2073034;28;20045;-63
2023/09/18 05:07:19;;;;;;;21.75;14.40;;;;;;;;;;2064712;28;20085;-63
2023/09/18 05:08:20;;;;;;;19.33;14.57;;;;;;;;;;2073235;28;20049;-64
2023/09/18 05:09:20;;;;;;;16.98;14.02;;;;;;;;;;2074072;28;20042;-63
2023/09/18 05:10:21;;;;;;;18.38;13.80;;;;;;;;;;2073158;28;20098;-63
2023/09/18 05:11:22;;;;;;;17.40;12.90;;;;;;;;;;2073939;28;20501;-63
2023/09/18 05:12:23;;;;;;;17.50;14.40;;;;;;;;;;2073825;28;20474;-63
2023/09/18 05:13:23;;;;;;;18.33;13.63;;;;;;;;;;2073931;28;20474;-63
2023/09/18 05:14:24;;;;;;;18.67;11.98;;;;;;;;;;2073671;28;20038;-63
2023/09/18 05:15:31;;;;;;;18.23;12.80;;;;;;;;;;2073880;28;20061;-63
2023/09/18 05:16:31;;;;;;;16.50;12.85;;;;;;;;;;2073961;28;20042;-63
2023/09/18 05:17:42;;;;;;;15.93;12.45;;;;;;;;;;2072836;28;20501;-63
2023/09/18 05:18:43;;;;;;;16.95;13.30;;;;;;;;;;2073759;28;20049;-63
2023/09/18 05:19:44;;;;;;;17.67;12.15;;;;;;;;;;2073732;28;20076;-64
2023/09/18 05:20:45;;;;;;;16.48;11.27;;;;;;;;;;2073865;28;20122;-63
2023/09/18 05:21:46;;;;;;;13.70;11.00;;;;;;;;;;2073317;28;20057;-64
2023/09/18 05:22:47;;;;;;;15.70;12.13;;;;;;;;;;2073861;28;20049;-63
2023/09/18 05:23:47;;;;;;;15.98;11.52;;;;;;;;;;2073841;28;20042;-64
2023/09/18 05:24:48;;;;;;;14.57;11.18;;;;;;;;;;2073859;28;20025;-63
2023/09/18 05:25:49;;;;;;;15.88;11.13;;;;;;;;;;2073893;28;20029;-63
2023/09/18 05:26:50;;;;;;;13.40;10.82;;;;;;;;;;2073690;28;20033;-64
2023/09/18 05:27:55;;;;;;;16.95;10.68;;;;;;;;;;2073693;28;20441;-64
2023/09/18 05:28:56;;;;;;;13.00;10.23;;;;;;;;;;2073864;28;20034;-63
2023/09/18 05:29:56;;;;;;;12.98;9.25;;;;;;;;;;2073718;28;20029;-64
2023/09/18 05:30:57;;;;;;;14.05;9.65;;;;;;;;;;2073804;28;20061;-63
2023/09/18 05:31:58;;;;;;;12.75;9.23;;;;;;;;;;2073750;28;20029;-63
2023/09/18 05:33:04;;;;;;;13.10;8.70;;;;;;;;;;2073728;28;20486;-64
2023/09/18 05:34:05;;;;;;;12.63;8.95;;;;;;;;;;2073827;28;20474;-64
2023/09/18 05:35:09;;;;;;;10.98;8.52;;;;;;;;;;2073434;28;20054;-64
2023/09/18 05:36:10;;;;;;;10.80;8.60;;;;;;;;;;2073272;28;20132;-64
2023/09/18 05:37:11;;;;;;;13.18;7.95;;;;;;;;;;2073897;28;20441;-65
2023/09/18 05:38:16;;;;;;;9.88;7.32;;;;;;;;;;2074266;28;20050;-63
2023/09/18 05:39:17;;;;;;;9.73;7.38;;;;;;;;;;2075327;28;20037;-63
2023/09/18 05:40:18;;;;;;;13.02;8.15;;;;;;;;;;2075519;28;20091;-65
2023/09/18 05:41:18;;;;;;;12.05;8.15;;;;;;;;;;2074651;28;20038;-63
2023/09/18 05:42:19;;;;;;;11.68;8.95;;;;;;;;;;2074733;28;20038;-63
2023/09/18 05:43:20;;;;;;;12.63;7.75;;;;;;;;;;2075317;28;20137;-64
2023/09/18 05:44:21;;;;;;;10.80;7.53;;;;;;;;;;2075338;28;20112;-64
2023/09/18 05:45:21;;;;;;;12.77;7.93;;;;;;;;;;2075453;28;20041;-63
2023/09/18 05:46:22;;;;;;;10.63;8.05;;;;;;;;;;2075278;28;20039;-63
2023/09/18 05:47:23;;;;;;;10.55;8.00;;;;;;;;;;2075208;28;20046;-63
2023/09/18 05:48:24;;;;;;;12.05;9.27;;;;;;;;;;2074493;28;20053;-64
2023/09/18 05:49:25;;;;;;;9.13;7.82;;;;;;;;;;2075171;28;20068;-64
2023/09/18 05:50:27;;;;;;;11.13;8.68;;;;;;;;;;2075328;28;20041;-64
2023/09/18 05:51:28;;;;;;;10.50;8.30;;;;;;;;;;2074840;28;20053;-64
2023/09/18 05:52:29;;;;;;;10.70;7.65;;;;;;;;;;2075561;28;20095;-63
2023/09/18 05:53:30;;;;;;;9.52;8.07;;;;;;;;;;2075245;28;20171;-64
2023/09/18 05:54:31;;;;;;;10.75;7.35;;;;;;;;;;2075054;28;20038;-66
2023/09/18 05:55:32;;;;;;;10.98;7.70;;;;;;;;;;2075191;28;20124;-67
2023/09/18 05:56:33;;;;;;;14.55;8.57;;;;;;;;;;2075221;28;20046;-67
2023/09/18 05:57:34;;;;;;;12.43;7.80;;;;;;;;;;2075255;28;20054;-65
2023/09/18 05:58:35;;;;;;;10.70;8.38;;;;;;;;;;2075306;28;20070;-67
2023/09/18 05:59:38;;;;;;;9.90;7.78;;;;;;;;;;2074603;28;20461;-65